Time;durP1;ratioP1;P1;durP2;ratioP2;P2;SDS_P1;SDS_P2;PMS_P1;PMS_P2;Temp;Humidity;BMP_temperature;BMP_pressure;BME280_temperature;BME280_humidity;BME280_pressure;Samples;Min_cycle;Max_cycle;Signal;HPM_P1;HPM_P2
2023/11/16 00:00:05;;;;;;;5.82;2.22;;;;;;;;;;4907112;29;20031;-80
2023/11/16 00:02:50;;;;;;;11.65;2.45;;;;;;;;;;4901221;29;20022;-80
2023/11/16 00:05:36;;;;;;;4.60;1.77;;;;;;;;;;4905139;29;20024;-81
2023/11/16 00:08:21;;;;;;;9.05;1.95;;;;;;;;;;4907491;29;20032;-79
2023/11/16 00:11:10;;;;;;;3.42;1.38;;;;;;;;;;4905937;29;20066;-79
2023/11/16 00:13:56;;;;;;;7.07;1.95;;;;;;;;;;4901928;29;20036;-78
2023/11/16 00:16:44;;;;;;;13.82;2.22;;;;;;;;;;4906628;29;20374;-80
2023/11/16 00:19:35;;;;;;;3.75;1.42;;;;;;;;;;4909537;29;20040;-79
2023/11/16 00:22:20;;;;;;;5.68;2.28;;;;;;;;;;4908824;29;20039;-78
2023/11/16 00:25:08;;;;;;;5.82;1.55;;;;;;;;;;4902060;29;20088;-79
2023/11/16 00:27:54;;;;;;;8.68;2.65;;;;;;;;;;4909401;29;20039;-79
2023/11/16 00:30:39;;;;;;;13.05;2.50;;;;;;;;;;4908838;29;20032;-79
2023/11/16 00:33:26;;;;;;;6.30;1.55;;;;;;;;;;4898203;29;20059;-80
2023/11/16 00:36:11;;;;;;;8.07;1.70;;;;;;;;;;4903571;29;20087;-80
2023/11/16 00:38:58;;;;;;;5.72;1.77;;;;;;;;;;4908124;29;20111;-80
2023/11/16 00:41:46;;;;;;;6.68;1.65;;;;;;;;;;4903366;29;20049;-80
2023/11/16 00:44:32;;;;;;;6.50;1.55;;;;;;;;;;4906234;29;20638;-78
2023/11/16 00:47:20;;;;;;;5.05;1.60;;;;;;;;;;4914184;29;20027;-77
2023/11/16 00:50:07;;;;;;;6.43;2.10;;;;;;;;;;4903177;29;20124;-80
2023/11/16 00:52:54;;;;;;;3.85;1.30;;;;;;;;;;4902792;29;20183;-80
2023/11/16 00:55:39;;;;;;;4.97;1.58;;;;;;;;;;4918418;29;20075;-80
2023/11/16 00:58:25;;;;;;;8.20;2.28;;;;;;;;;;4902412;29;20836;-79
2023/11/16 01:01:12;;;;;;;9.10;1.52;;;;;;;;;;4906049;29;20032;-79
2023/11/16 01:04:00;;;;;;;7.18;1.63;;;;;;;;;;4908210;29;20076;-77
2023/11/16 01:06:46;;;;;;;3.08;1.65;;;;;;;;;;4904478;29;20079;-78
2023/11/16 01:09:35;;;;;;;2.90;1.38;;;;;;;;;;4917044;29;20154;-79
2023/11/16 01:12:25;;;;;;;5.75;1.92;;;;;;;;;;4903319;29;20032;-79
2023/11/16 01:15:11;;;;;;;10.18;3.15;;;;;;;;;;4908650;29;20083;-79
2023/11/16 01:17:59;;;;;;;5.68;1.58;;;;;;;;;;4905451;29;20032;-79
2023/11/16 01:20:45;;;;;;;6.13;1.60;;;;;;;;;;4908543;29;20068;-79
2023/11/16 01:23:31;;;;;;;6.28;1.50;;;;;;;;;;4906279;29;20036;-79
2023/11/16 01:26:17;;;;;;;5.32;1.70;;;;;;;;;;4900694;29;20036;-79
2023/11/16 01:29:06;;;;;;;6.32;1.60;;;;;;;;;;4903067;29;20043;-79
2023/11/16 01:31:54;;;;;;;7.07;2.25;;;;;;;;;;4905485;29;20028;-79
2023/11/16 01:34:41;;;;;;;6.68;1.50;;;;;;;;;;4906197;29;20034;-79
2023/11/16 01:37:27;;;;;;;7.05;1.67;;;;;;;;;;4908114;29;20036;-79
2023/11/16 01:40:12;;;;;;;7.93;2.13;;;;;;;;;;4903393;29;20031;-78
2023/11/16 01:42:57;;;;;;;9.93;2.30;;;;;;;;;;4911308;29;20047;-78
2023/11/16 01:45:43;;;;;;;3.30;1.23;;;;;;;;;;4909024;29;20032;-78
2023/11/16 01:48:32;;;;;;;7.63;1.45;;;;;;;;;;4904767;29;20055;-78
2023/11/16 01:51:18;;;;;;;6.47;1.33;;;;;;;;;;4911083;29;20044;-77
2023/11/16 01:54:04;;;;;;;8.52;1.85;;;;;;;;;;4904976;29;20479;-77
2023/11/16 01:56:50;;;;;;;10.02;2.08;;;;;;;;;;4902736;29;20035;-78
2023/11/16 01:59:38;;;;;;;8.15;1.75;;;;;;;;;;4902296;29;20116;-78
2023/11/16 02:02:24;;;;;;;6.93;1.73;;;;;;;;;;4895805;29;20035;-78
2023/11/16 02:05:10;;;;;;;6.45;1.35;;;;;;;;;;4908425;29;20032;-79
2023/11/16 02:07:55;;;;;;;4.75;1.40;;;;;;;;;;4891320;29;20046;-78
2023/11/16 02:10:41;;;;;;;6.78;1.90;;;;;;;;;;4903395;29;20522;-79
2023/11/16 02:13:26;;;;;;;7.75;1.40;;;;;;;;;;4903770;29;20032;-77
2023/11/16 02:16:13;;;;;;;5.13;2.50;;;;;;;;;;4900373;29;20559;-78
2023/11/16 02:19:06;;;;;;;6.95;1.90;;;;;;;;;;4905766;29;20032;-79
2023/11/16 02:21:52;;;;;;;6.15;1.83;;;;;;;;;;4905325;29;20050;-78
2023/11/16 02:24:37;;;;;;;8.35;2.50;;;;;;;;;;4907408;29;20028;-77
2023/11/16 02:27:23;;;;;;;12.63;1.73;;;;;;;;;;4903332;29;20115;-77
2023/11/16 02:30:09;;;;;;;2.53;1.48;;;;;;;;;;4894134;29;20116;-78
2023/11/16 02:32:54;;;;;;;3.08;1.50;;;;;;;;;;4905264;29;20043;-78
2023/11/16 02:35:40;;;;;;;4.32;1.58;;;;;;;;;;4900902;29;20063;-79
2023/11/16 02:38:25;;;;;;;5.78;1.75;;;;;;;;;;4903235;29;20095;-79
2023/11/16 02:41:11;;;;;;;5.15;2.33;;;;;;;;;;4908059;29;20023;-79
2023/11/16 02:43:56;;;;;;;4.90;1.52;;;;;;;;;;4908087;29;20044;-79
2023/11/16 02:46:42;;;;;;;4.47;1.50;;;;;;;;;;4909216;29;20028;-79
2023/11/16 02:49:27;;;;;;;4.85;1.75;;;;;;;;;;4908011;29;20040;-79
2023/11/16 02:52:12;;;;;;;5.82;2.05;;;;;;;;;;4908946;29;20660;-79
2023/11/16 02:54:58;;;;;;;7.63;1.67;;;;;;;;;;4908169;29;20037;-78
2023/11/16 02:57:43;;;;;;;2.67;1.35;;;;;;;;;;4901398;29;20017;-79
2023/11/16 03:00:31;;;;;;;5.07;1.60;;;;;;;;;;4904576;29;20031;-78
2023/11/16 03:03:17;;;;;;;5.25;1.77;;;;;;;;;;4905529;29;20427;-78
2023/11/16 03:06:03;;;;;;;3.50;1.63;;;;;;;;;;4908253;29;20024;-79
2023/11/16 03:08:49;;;;;;;7.45;1.95;;;;;;;;;;4899719;29;20512;-78
2023/11/16 03:11:35;;;;;;;5.53;1.83;;;;;;;;;;4911160;29;20031;-78
2023/11/16 03:14:20;;;;;;;5.68;1.92;;;;;;;;;;4904772;29;20033;-77
2023/11/16 03:17:06;;;;;;;3.60;1.88;;;;;;;;;;4906954;29;20020;-77
2023/11/16 03:19:52;;;;;;;4.97;1.67;;;;;;;;;;4905050;29;20043;-79
2023/11/16 03:22:37;;;;;;;4.28;2.00;;;;;;;;;;4914421;29;20040;-78
2023/11/16 03:25:24;;;;;;;6.35;2.22;;;;;;;;;;4904189;29;20039;-78
2023/11/16 03:28:53;;;;;;;3.00;1.58;;;;;;;;;;4908986;29;20043;-78
2023/11/16 03:31:40;;;;;;;4.97;1.63;;;;;;;;;;4910912;29;20024;-80
2023/11/16 03:34:28;;;;;;;12.13;2.03;;;;;;;;;;4911564;29;20031;-79
2023/11/16 03:37:13;;;;;;;4.43;1.23;;;;;;;;;;4907766;29;20039;-79
2023/11/16 03:39:58;;;;;;;3.33;1.95;;;;;;;;;;4903708;29;20024;-78
2023/11/16 03:42:43;;;;;;;3.83;2.20;;;;;;;;;;4916630;29;20032;-78
2023/11/16 03:45:29;;;;;;;4.60;1.58;;;;;;;;;;4908114;29;20050;-79
2023/11/16 03:48:14;;;;;;;7.20;1.52;;;;;;;;;;4909803;29;20024;-79
2023/11/16 03:51:01;;;;;;;4.28;1.55;;;;;;;;;;4900985;29;20036;-78
2023/11/16 03:53:47;;;;;;;2.65;1.23;;;;;;;;;;4903278;29;20028;-77
2023/11/16 03:56:32;;;;;;;4.57;1.60;;;;;;;;;;4912594;29;20059;-78
2023/11/16 03:59:18;;;;;;;5.07;1.63;;;;;;;;;;4924481;29;20031;-78
2023/11/16 04:02:05;;;;;;;1.75;1.33;;;;;;;;;;4910236;29;20077;-78
2023/11/16 04:04:50;;;;;;;8.80;2.47;;;;;;;;;;4907463;29;20166;-78
2023/11/16 04:07:36;;;;;;;5.47;1.42;;;;;;;;;;4902753;29;20110;-78
2023/11/16 04:10:22;;;;;;;3.95;1.73;;;;;;;;;;4894886;29;20123;-78
2023/11/16 04:13:20;;;;;;;;;;;;;;;;;;;;;
2023/11/16 04:16:24;;;;;;;2.50;1.40;;;;;;;;;;4885035;29;20036;-78
2023/11/16 04:19:09;;;;;;;3.30;1.42;;;;;;;;;;4903720;29;20036;-77
2023/11/16 04:21:57;;;;;;;3.92;1.25;;;;;;;;;;4903437;29;20614;-78
2023/11/16 04:24:42;;;;;;;4.78;1.65;;;;;;;;;;4910690;29;20176;-77
2023/11/16 04:27:27;;;;;;;6.38;2.08;;;;;;;;;;4905539;29;20028;-78
2023/11/16 04:30:13;;;;;;;7.15;1.50;;;;;;;;;;4898648;29;20109;-78
2023/11/16 04:32:58;;;;;;;3.58;1.52;;;;;;;;;;4906676;29;20035;-79
2023/11/16 04:35:43;;;;;;;6.40;1.60;;;;;;;;;;4900597;29;20123;-80
2023/11/16 04:38:28;;;;;;;12.95;2.08;;;;;;;;;;4903239;29;20170;-79
2023/11/16 04:41:16;;;;;;;4.40;2.10;;;;;;;;;;4924196;28;20068;-80
2023/11/16 04:44:02;;;;;;;3.47;1.70;;;;;;;;;;4900584;29;20169;-79
2023/11/16 04:46:48;;;;;;;6.68;1.70;;;;;;;;;;4901979;29;20426;-80
2023/11/16 04:49:34;;;;;;;5.05;2.00;;;;;;;;;;4908029;29;20103;-79
2023/11/16 04:52:20;;;;;;;6.45;1.63;;;;;;;;;;4904468;29;20039;-79
2023/11/16 04:55:05;;;;;;;4.88;1.85;;;;;;;;;;4905663;29;20106;-79
2023/11/16 04:57:50;;;;;;;7.78;1.83;;;;;;;;;;4911536;29;20020;-78
2023/11/16 05:00:35;;;;;;;4.35;1.88;;;;;;;;;;4904763;29;20071;-79
2023/11/16 05:03:21;;;;;;;5.03;1.60;;;;;;;;;;4901699;29;20028;-79
2023/11/16 05:06:10;;;;;;;4.90;1.60;;;;;;;;;;4906587;29;20024;-80
2023/11/16 05:08:55;;;;;;;4.50;1.67;;;;;;;;;;4899874;29;20502;-79
2023/11/16 05:11:40;;;;;;;4.28;1.75;;;;;;;;;;4905336;29;20111;-79
2023/11/16 05:14:25;;;;;;;5.63;2.13;;;;;;;;;;4912029;29;20036;-78
2023/11/16 05:17:11;;;;;;;6.28;1.38;;;;;;;;;;4905553;29;20066;-78
2023/11/16 05:19:56;;;;;;;7.68;1.40;;;;;;;;;;4902886;29;20064;-78
2023/11/16 05:22:41;;;;;;;4.32;1.65;;;;;;;;;;4907856;29;20032;-78
2023/11/16 05:25:27;;;;;;;4.70;1.90;;;;;;;;;;4902424;29;20017;-77
2023/11/16 05:28:14;;;;;;;4.82;2.22;;;;;;;;;;4904941;29;20024;-77
2023/11/16 05:30:59;;;;;;;6.18;2.30;;;;;;;;;;4905746;29;20486;-78
2023/11/16 05:33:44;;;;;;;8.13;1.80;;;;;;;;;;4900524;29;20487;-77
2023/11/16 05:36:30;;;;;;;4.95;1.50;;;;;;;;;;4903013;29;20046;-78
2023/11/16 05:39:16;;;;;;;7.75;1.98;;;;;;;;;;4910527;29;20475;-78
2023/11/16 05:42:01;;;;;;;8.23;2.38;;;;;;;;;;4900162;29;20024;-78
2023/11/16 05:44:46;;;;;;;5.03;1.60;;;;;;;;;;4900891;29;20522;-78
2023/11/16 05:47:32;;;;;;;5.57;1.80;;;;;;;;;;4903104;29;20518;-78
2023/11/16 05:50:19;;;;;;;4.43;1.55;;;;;;;;;;4903339;29;20869;-79
2023/11/16 05:53:06;;;;;;;4.32;1.73;;;;;;;;;;4900444;29;20047;-79
2023/11/16 05:55:52;;;;;;;4.63;1.80;;;;;;;;;;4906955;29;20032;-79
2023/11/16 05:58:42;;;;;;;8.98;2.05;;;;;;;;;;4907424;29;20036;-80
2023/11/16 06:01:30;;;;;;;8.85;1.95;;;;;;;;;;4894575;29;20035;-80
2023/11/16 06:04:16;;;;;;;8.88;1.80;;;;;;;;;;4907334;29;20688;-80
2023/11/16 06:07:01;;;;;;;6.22;1.83;;;;;;;;;;4903989;29;20084;-80
2023/11/16 06:09:47;;;;;;;4.95;2.33;;;;;;;;;;4904499;29;20023;-80
2023/11/16 06:12:33;;;;;;;6.50;1.73;;;;;;;;;;4905545;29;20066;-80
2023/11/16 06:15:18;;;;;;;7.93;2.80;;;;;;;;;;4906474;29;20119;-79
2023/11/16 06:18:04;;;;;;;10.15;3.03;;;;;;;;;;4903275;29;20074;-79
2023/11/16 06:20:49;;;;;;;4.30;2.10;;;;;;;;;;4902875;29;20023;-79
2023/11/16 06:23:34;;;;;;;4.70;2.17;;;;;;;;;;4897534;29;20035;-79
2023/11/16 06:26:19;;;;;;;9.10;2.13;;;;;;;;;;4908019;29;20032;-88
2023/11/16 06:29:08;;;;;;;7.47;3.05;;;;;;;;;;4905984;29;20035;-87
2023/11/16 06:31:53;;;;;;;6.95;2.60;;;;;;;;;;4903832;29;20043;-80
2023/11/16 06:37:47;;;;;;;6.77;2.30;;;;;;;;;;4923710;29;20111;-81
2023/11/16 06:40:34;;;;;;;8.20;2.72;;;;;;;;;;4917414;29;20269;-80
2023/11/16 06:43:23;;;;;;;4.68;2.08;;;;;;;;;;4915839;29;20051;-80
2023/11/16 06:46:12;;;;;;;10.40;2.97;;;;;;;;;;4924489;29;20430;-80
2023/11/16 06:48:57;;;;;;;8.30;3.03;;;;;;;;;;4892011;29;20039;-80
2023/11/16 06:51:42;;;;;;;7.30;2.58;;;;;;;;;;4902878;29;20048;-79
2023/11/16 06:54:31;;;;;;;3.65;2.17;;;;;;;;;;4884794;29;20113;-78
2023/11/16 06:57:16;;;;;;;10.18;2.42;;;;;;;;;;4901718;29;20020;-77
2023/11/16 07:00:08;;;;;;;6.88;2.70;;;;;;;;;;4909525;29;20028;-78
2023/11/16 07:02:53;;;;;;;8.63;2.63;;;;;;;;;;4900252;29;20115;-81
2023/11/16 07:05:38;;;;;;;6.15;2.33;;;;;;;;;;4901111;29;20034;-78
2023/11/16 07:08:30;;;;;;;7.25;1.98;;;;;;;;;;4893119;29;20078;-79
2023/11/16 07:11:15;;;;;;;5.40;2.10;;;;;;;;;;4906360;29;20039;-80
2023/11/16 07:14:00;;;;;;;5.68;1.92;;;;;;;;;;4900793;29;20024;-80
2023/11/16 07:16:55;;;;;;;5.80;2.25;;;;;;;;;;4904514;29;20435;-81
2023/11/16 07:19:41;;;;;;;5.50;1.98;;;;;;;;;;4899765;29;20063;-80
2023/11/16 07:22:29;;;;;;;7.45;2.53;;;;;;;;;;4888885;29;20027;-80
2023/11/16 07:25:20;;;;;;;5.45;2.03;;;;;;;;;;4899348;29;20028;-79
2023/11/16 07:28:08;;;;;;;5.60;2.15;;;;;;;;;;4892939;29;20135;-78
2023/11/16 07:30:53;;;;;;;6.95;2.20;;;;;;;;;;4903648;29;20028;-80
2023/11/16 07:33:39;;;;;;;5.90;2.10;;;;;;;;;;4906800;29;20411;-79
2023/11/16 07:36:27;;;;;;;6.05;1.48;;;;;;;;;;4899734;29;20028;-79
2023/11/16 07:39:12;;;;;;;4.43;1.83;;;;;;;;;;4908798;29;20031;-80
2023/11/16 07:41:59;;;;;;;8.02;2.97;;;;;;;;;;4906849;29;20059;-79
2023/11/16 07:44:44;;;;;;;8.00;1.95;;;;;;;;;;4902289;29;20531;-80
2023/11/16 07:47:55;;;;;;;5.40;1.80;;;;;;;;;;4909664;29;20391;-80
2023/11/16 07:50:40;;;;;;;8.00;2.30;;;;;;;;;;4907382;29;20518;-80
2023/11/16 07:53:25;;;;;;;6.13;2.30;;;;;;;;;;4901595;29;20024;-79
2023/11/16 07:56:10;;;;;;;8.40;2.90;;;;;;;;;;4908311;29;20091;-79
2023/11/16 07:58:58;;;;;;;10.32;3.92;;;;;;;;;;4902589;29;20036;-82
2023/11/16 08:01:50;;;;;;;6.70;2.47;;;;;;;;;;4908350;29;20032;-80
2023/11/16 08:04:35;;;;;;;5.25;2.35;;;;;;;;;;4905848;29;20024;-79
2023/11/16 08:07:23;;;;;;;4.05;2.25;;;;;;;;;;4908566;29;20107;-79
2023/11/16 08:10:09;;;;;;;6.38;1.98;;;;;;;;;;4898181;29;20067;-78
2023/11/16 08:12:56;;;;;;;6.57;2.53;;;;;;;;;;4904625;29;20039;-79
2023/11/16 08:15:42;;;;;;;6.03;2.20;;;;;;;;;;4909013;29;20036;-79
2023/11/16 08:18:28;;;;;;;8.13;2.35;;;;;;;;;;4906014;29;20050;-79
2023/11/16 08:21:13;;;;;;;11.07;3.08;;;;;;;;;;4902600;29;20508;-80
2023/11/16 08:23:58;;;;;;;4.85;2.10;;;;;;;;;;4900615;29;20040;-80
2023/11/16 08:26:44;;;;;;;5.57;2.00;;;;;;;;;;4909457;29;20035;-79
2023/11/16 08:29:29;;;;;;;6.45;2.00;;;;;;;;;;4906653;29;20107;-79
2023/11/16 08:32:14;;;;;;;8.38;3.13;;;;;;;;;;4916685;29;20086;-80
2023/11/16 08:35:00;;;;;;;6.85;2.20;;;;;;;;;;4887804;29;20323;-80
2023/11/16 08:37:45;;;;;;;6.53;1.90;;;;;;;;;;4908906;29;20408;-81
2023/11/16 08:40:31;;;;;;;6.78;2.10;;;;;;;;;;4905443;29;20028;-80
2023/11/16 08:43:17;;;;;;;7.32;2.13;;;;;;;;;;4904573;29;20402;-80
2023/11/16 08:46:05;;;;;;;6.05;2.58;;;;;;;;;;4904830;29;20091;-82
2023/11/16 08:48:51;;;;;;;7.07;2.28;;;;;;;;;;4912106;29;20027;-79
2023/11/16 08:51:38;;;;;;;7.32;2.22;;;;;;;;;;4904322;29;20044;-81
2023/11/16 08:54:25;;;;;;;7.75;2.28;;;;;;;;;;4892964;29;20103;-80
2023/11/16 08:57:11;;;;;;;10.32;2.25;;;;;;;;;;4915094;29;20165;-79
2023/11/16 09:00:02;;;;;;;7.32;2.33;;;;;;;;;;4914563;29;20395;-79
2023/11/16 09:02:47;;;;;;;4.32;2.03;;;;;;;;;;4906380;29;20040;-80
2023/11/16 09:05:33;;;;;;;6.68;2.55;;;;;;;;;;4912112;29;20039;-79
2023/11/16 09:08:19;;;;;;;5.13;2.45;;;;;;;;;;4907068;29;20069;-79
2023/11/16 09:11:07;;;;;;;8.02;2.85;;;;;;;;;;4905621;29;20367;-80
2023/11/16 09:13:53;;;;;;;4.32;1.90;;;;;;;;;;4905171;29;20046;-81
2023/11/16 09:16:39;;;;;;;8.18;3.28;;;;;;;;;;4904745;29;20042;-80
2023/11/16 09:19:25;;;;;;;5.60;2.03;;;;;;;;;;4909854;29;20589;-80
2023/11/16 09:22:10;;;;;;;7.22;1.85;;;;;;;;;;4893557;29;20021;-79
2023/11/16 09:25:00;;;;;;;6.78;2.22;;;;;;;;;;4906321;29;20486;-77
2023/11/16 09:27:50;;;;;;;4.53;2.00;;;;;;;;;;4920721;28;20813;-78
2023/11/16 09:30:38;;;;;;;4.97;1.88;;;;;;;;;;4901495;29;20059;-78
2023/11/16 09:33:24;;;;;;;7.75;2.53;;;;;;;;;;4912287;29;20050;-78
2023/11/16 09:36:13;;;;;;;6.20;1.85;;;;;;;;;;4905571;29;20343;-80
2023/11/16 09:38:59;;;;;;;6.03;1.70;;;;;;;;;;4905254;29;20063;-80
2023/11/16 09:41:49;;;;;;;6.28;2.10;;;;;;;;;;4904755;29;20520;-81
2023/11/16 09:44:38;;;;;;;5.72;2.22;;;;;;;;;;4903958;29;20033;-79
2023/11/16 09:47:45;;;;;;;5.70;2.70;;;;;;;;;;4924372;29;20036;-78
2023/11/16 09:50:31;;;;;;;8.98;2.15;;;;;;;;;;4899151;29;20411;-79
2023/11/16 09:53:17;;;;;;;7.95;2.33;;;;;;;;;;4905529;29;20456;-79
2023/11/16 09:56:04;;;;;;;3.72;2.05;;;;;;;;;;4917849;29;20032;-79
2023/11/16 09:58:53;;;;;;;6.00;2.35;;;;;;;;;;4903772;29;20028;-79
2023/11/16 10:01:46;;;;;;;5.72;2.00;;;;;;;;;;4897474;29;20044;-79
2023/11/16 10:04:33;;;;;;;7.28;2.05;;;;;;;;;;4900660;29;20032;-78
2023/11/16 10:07:25;;;;;;;6.32;2.88;;;;;;;;;;4901070;29;20039;-79
2023/11/16 10:10:14;;;;;;;7.45;2.67;;;;;;;;;;4899018;29;20599;-80
2023/11/16 10:12:59;;;;;;;8.00;2.17;;;;;;;;;;4905754;29;20535;-81
2023/11/16 10:15:45;;;;;;;5.25;2.42;;;;;;;;;;4902759;29;20032;-79
2023/11/16 10:18:31;;;;;;;12.00;2.08;;;;;;;;;;4907073;29;20702;-81
2023/11/16 10:21:16;;;;;;;5.85;1.70;;;;;;;;;;4904440;29;20048;-80
2023/11/16 10:24:09;;;;;;;4.78;1.75;;;;;;;;;;4905329;29;20744;-79
2023/11/16 10:26:54;;;;;;;7.75;2.47;;;;;;;;;;4902669;29;20571;-80
2023/11/16 10:29:39;;;;;;;7.22;2.20;;;;;;;;;;4905079;29;20166;-79
2023/11/16 10:32:26;;;;;;;7.22;2.70;;;;;;;;;;4902883;29;20060;-79
2023/11/16 10:35:13;;;;;;;5.07;2.35;;;;;;;;;;4900945;29;20553;-78
2023/11/16 10:37:58;;;;;;;9.05;2.92;;;;;;;;;;4898866;29;20047;-80
2023/11/16 10:40:47;;;;;;;4.93;2.00;;;;;;;;;;4903016;29;20099;-78
2023/11/16 10:43:33;;;;;;;5.15;1.80;;;;;;;;;;4900630;29;20480;-79
2023/11/16 10:46:19;;;;;;;10.63;2.03;;;;;;;;;;4903189;29;20051;-80
2023/11/16 10:49:05;;;;;;;8.38;2.90;;;;;;;;;;4904005;29;20054;-81
2023/11/16 10:51:53;;;;;;;8.50;2.60;;;;;;;;;;4870087;29;20107;-81
2023/11/16 10:54:41;;;;;;;5.68;1.80;;;;;;;;;;4884919;29;20031;-81
2023/11/16 10:57:29;;;;;;;6.13;2.72;;;;;;;;;;4877318;29;20482;-81
2023/11/16 11:00:18;;;;;;;5.22;1.85;;;;;;;;;;4877996;29;20037;-79
2023/11/16 11:03:06;;;;;;;5.68;2.47;;;;;;;;;;4872618;29;20035;-81
2023/11/16 11:05:57;;;;;;;5.90;2.10;;;;;;;;;;4880490;29;20863;-81
2023/11/16 11:08:44;;;;;;;6.43;1.83;;;;;;;;;;4868776;29;20116;-81
2023/11/16 11:11:29;;;;;;;2.70;1.52;;;;;;;;;;4878171;29;20035;-81
2023/11/16 11:14:18;;;;;;;7.15;2.35;;;;;;;;;;4874580;29;20112;-82
2023/11/16 11:17:05;;;;;;;7.13;1.90;;;;;;;;;;4859484;29;20498;-84
2023/11/16 11:19:58;;;;;;;7.03;1.92;;;;;;;;;;4873806;29;20078;-80
2023/11/16 11:22:44;;;;;;;8.27;2.58;;;;;;;;;;4871781;29;20039;-82
2023/11/16 11:25:31;;;;;;;7.57;1.65;;;;;;;;;;4872713;29;20043;-82
2023/11/16 11:28:16;;;;;;;4.97;2.03;;;;;;;;;;4879011;29;20036;-81
2023/11/16 11:31:04;;;;;;;4.32;1.70;;;;;;;;;;4882958;29;20032;-82
2023/11/16 11:33:50;;;;;;;5.80;2.00;;;;;;;;;;4872066;29;20037;-83
2023/11/16 11:36:35;;;;;;;7.75;1.73;;;;;;;;;;4878107;29;20259;-84
2023/11/16 11:39:26;;;;;;;5.03;1.77;;;;;;;;;;4872228;29;20119;-82
2023/11/16 11:42:16;;;;;;;5.40;2.28;;;;;;;;;;4873114;29;20036;-82
2023/11/16 11:45:01;;;;;;;;;;;;;;;;;;4871305;29;20036;-81
2023/11/16 11:47:48;;;;;;;4.60;1.98;;;;;;;;;;4884495;29;19958;-82
2023/11/16 11:50:34;;;;;;;4.13;1.70;;;;;;;;;;4891548;29;20059;-81
2023/11/16 11:53:21;;;;;;;11.38;2.75;;;;;;;;;;4891110;29;20039;-80
2023/11/16 11:56:06;;;;;;;9.40;3.55;;;;;;;;;;4907456;29;20059;-79
2023/11/16 11:58:53;;;;;;;8.10;3.13;;;;;;;;;;4907353;29;20044;-84
2023/11/16 12:01:38;;;;;;;8.50;3.83;;;;;;;;;;4902724;29;20151;-81
2023/11/16 12:04:30;;;;;;;6.65;3.15;;;;;;;;;;4900845;29;20040;-81
2023/11/16 12:07:15;;;;;;;8.52;4.68;;;;;;;;;;4903283;29;20575;-82
2023/11/16 12:10:01;;;;;;;12.85;4.35;;;;;;;;;;4904051;29;20035;-83
2023/11/16 12:12:49;;;;;;;10.10;4.60;;;;;;;;;;4904439;29;20032;-81
2023/11/16 12:15:58;;;;;;;9.93;3.85;;;;;;;;;;4903210;29;20055;-81
2023/11/16 12:18:46;;;;;;;11.52;4.28;;;;;;;;;;4902630;29;20032;-82
2023/11/16 12:21:32;;;;;;;8.60;3.60;;;;;;;;;;4899819;29;20036;-82
2023/11/16 12:24:22;;;;;;;9.55;3.90;;;;;;;;;;4901250;29;20075;-83
2023/11/16 12:27:13;;;;;;;7.18;3.45;;;;;;;;;;4903558;29;20690;-81
2023/11/16 12:30:00;;;;;;;7.68;3.67;;;;;;;;;;4903922;29;20071;-83
2023/11/16 12:32:45;;;;;;;13.32;4.70;;;;;;;;;;4901832;29;20616;-82
2023/11/16 12:35:31;;;;;;;10.50;3.42;;;;;;;;;;4907260;29;20036;-82
2023/11/16 12:38:19;;;;;;;13.80;4.35;;;;;;;;;;4906799;29;20035;-81
2023/11/16 12:41:05;;;;;;;11.20;5.30;;;;;;;;;;4906065;29;20431;-82
2023/11/16 12:43:51;;;;;;;15.80;4.50;;;;;;;;;;4887873;29;20028;-82
2023/11/16 12:46:37;;;;;;;10.07;4.18;;;;;;;;;;4902226;29;20124;-82
2023/11/16 12:49:22;;;;;;;11.40;4.25;;;;;;;;;;4900067;29;20020;-83
2023/11/16 12:52:08;;;;;;;12.52;4.22;;;;;;;;;;4890699;29;20024;-83
2023/11/16 12:54:53;;;;;;;11.02;4.25;;;;;;;;;;4893495;29;20030;-85
2023/11/16 12:57:40;;;;;;;8.18;4.10;;;;;;;;;;4881190;29;20032;-84
2023/11/16 13:00:25;;;;;;;13.65;4.97;;;;;;;;;;4899743;29;20028;-81
2023/11/16 13:03:10;;;;;;;9.98;4.38;;;;;;;;;;4891130;29;20036;-82
2023/11/16 13:05:56;;;;;;;12.98;4.85;;;;;;;;;;4893285;29;20067;-80
2023/11/16 13:08:42;;;;;;;15.95;5.47;;;;;;;;;;4892404;29;20115;-80
2023/11/16 13:11:27;;;;;;;18.02;6.13;;;;;;;;;;4893580;29;20028;-79
2023/11/16 13:14:13;;;;;;;11.23;4.57;;;;;;;;;;4893032;29;20067;-80
2023/11/16 13:16:58;;;;;;;12.52;4.97;;;;;;;;;;4895440;29;20038;-80
2023/11/16 13:19:43;;;;;;;12.95;4.50;;;;;;;;;;4896020;29;20373;-81
2023/11/16 13:22:32;;;;;;;10.10;3.97;;;;;;;;;;4898355;29;20492;-83
2023/11/16 13:25:18;;;;;;;10.10;4.45;;;;;;;;;;4893945;29;20028;-82
2023/11/16 13:28:04;;;;;;;11.02;4.18;;;;;;;;;;4889613;29;20115;-82
2023/11/16 13:30:49;;;;;;;9.20;3.30;;;;;;;;;;4884564;29;20383;-82
2023/11/16 13:33:35;;;;;;;10.75;3.70;;;;;;;;;;4891903;29;20032;-81
2023/11/16 13:36:20;;;;;;;5.82;3.15;;;;;;;;;;4892200;29;20483;-80
2023/11/16 13:39:07;;;;;;;7.38;3.25;;;;;;;;;;4889891;29;20039;-78
2023/11/16 13:41:54;;;;;;;13.02;3.42;;;;;;;;;;4891871;29;20039;-79
2023/11/16 13:44:39;;;;;;;11.30;3.85;;;;;;;;;;4896596;29;20024;-75
2023/11/16 13:47:27;;;;;;;7.53;3.42;;;;;;;;;;4892490;29;20135;-76
2023/11/16 13:50:12;;;;;;;6.57;2.55;;;;;;;;;;4891798;29;20067;-78
2023/11/16 13:52:57;;;;;;;5.18;2.58;;;;;;;;;;4900559;29;20491;-79
2023/11/16 13:55:42;;;;;;;5.25;2.58;;;;;;;;;;4899904;29;20055;-80
2023/11/16 13:58:28;;;;;;;7.90;3.08;;;;;;;;;;4901031;29;20056;-79
2023/11/16 14:01:14;;;;;;;5.75;2.08;;;;;;;;;;4904830;29;20106;-78
2023/11/16 14:03:59;;;;;;;6.80;3.25;;;;;;;;;;4908435;29;20043;-79
2023/11/16 14:06:44;;;;;;;6.82;2.63;;;;;;;;;;4905937;29;20040;-81
2023/11/16 14:09:30;;;;;;;5.07;2.63;;;;;;;;;;4904994;29;20103;-79
2023/11/16 14:12:15;;;;;;;7.65;2.65;;;;;;;;;;4901194;29;20067;-79
2023/11/16 14:15:00;;;;;;;7.07;2.85;;;;;;;;;;4886303;29;20032;-77
2023/11/16 14:17:45;;;;;;;9.07;2.80;;;;;;;;;;4901895;29;20222;-78
2023/11/16 14:20:31;;;;;;;7.07;2.35;;;;;;;;;;4901343;29;20084;-78
2023/11/16 14:23:16;;;;;;;6.15;1.98;;;;;;;;;;4902793;29;20036;-78
2023/11/16 14:26:08;;;;;;;7.43;2.72;;;;;;;;;;4902544;29;20568;-77
2023/11/16 14:28:55;;;;;;;6.22;2.47;;;;;;;;;;4902244;29;20088;-78
2023/11/16 14:31:40;;;;;;;6.15;2.30;;;;;;;;;;4900685;29;20028;-81
2023/11/16 14:34:26;;;;;;;5.03;2.55;;;;;;;;;;4905165;29;20032;-76
2023/11/16 14:37:14;;;;;;;7.05;2.88;;;;;;;;;;4900617;29;20070;-78
2023/11/16 14:39:59;;;;;;;7.28;3.22;;;;;;;;;;4909375;29;20367;-77
2023/11/16 14:42:45;;;;;;;8.82;2.35;;;;;;;;;;4908196;29;20148;-77
2023/11/16 14:45:30;;;;;;;7.80;2.47;;;;;;;;;;4900042;29;20107;-77
2023/11/16 14:48:15;;;;;;;7.75;2.00;;;;;;;;;;4905861;29;20040;-79
2023/11/16 14:51:01;;;;;;;8.95;2.58;;;;;;;;;;4904706;29;20044;-77
2023/11/16 14:53:46;;;;;;;11.23;3.38;;;;;;;;;;4902835;29;20033;-78
2023/11/16 14:56:33;;;;;;;6.90;2.67;;;;;;;;;;4897794;29;20768;-78
2023/11/16 14:59:23;;;;;;;8.32;3.13;;;;;;;;;;4902085;29;20380;-78
2023/11/16 15:02:08;;;;;;;6.90;3.25;;;;;;;;;;4899825;29;20676;-78
2023/11/16 15:04:54;;;;;;;8.20;2.53;;;;;;;;;;4902008;29;20866;-79
2023/11/16 15:07:39;;;;;;;6.90;2.13;;;;;;;;;;4902097;29;20044;-78
2023/11/16 15:10:26;;;;;;;6.05;2.80;;;;;;;;;;4901851;29;20544;-78
2023/11/16 15:13:12;;;;;;;7.60;3.00;;;;;;;;;;4898490;29;20102;-78
2023/11/16 15:15:57;;;;;;;8.00;3.28;;;;;;;;;;4887326;29;20020;-78
2023/11/16 15:18:43;;;;;;;10.23;2.88;;;;;;;;;;4904948;29;20363;-78
2023/11/16 15:21:28;;;;;;;10.18;3.47;;;;;;;;;;4911096;29;20036;-78
2023/11/16 15:24:14;;;;;;;9.43;2.97;;;;;;;;;;4903851;29;20024;-77
2023/11/16 15:26:59;;;;;;;4.18;1.90;;;;;;;;;;4901371;29;20039;-77
2023/11/16 15:29:45;;;;;;;6.95;2.47;;;;;;;;;;4899226;29;20696;-76
2023/11/16 15:32:32;;;;;;;6.80;3.05;;;;;;;;;;4901471;29;20028;-77
2023/11/16 15:35:18;;;;;;;7.57;2.28;;;;;;;;;;4916677;29;20044;-75
2023/11/16 15:38:03;;;;;;;4.93;2.25;;;;;;;;;;4897457;29;20103;-76
2023/11/16 15:40:49;;;;;;;4.95;2.05;;;;;;;;;;4889167;29;20099;-76
2023/11/16 15:43:34;;;;;;;5.20;2.00;;;;;;;;;;4899417;29;20095;-78
2023/11/16 15:46:19;;;;;;;5.10;3.13;;;;;;;;;;4897784;29;20040;-77
2023/11/16 15:49:04;;;;;;;5.55;2.05;;;;;;;;;;4900553;29;20028;-77
2023/11/16 15:51:50;;;;;;;7.00;2.15;;;;;;;;;;4872007;29;20025;-76
2023/11/16 15:54:35;;;;;;;2.92;1.65;;;;;;;;;;4879999;29;20539;-78
2023/11/16 15:57:23;;;;;;;6.53;2.45;;;;;;;;;;4876127;29;20484;-76
2023/11/16 16:00:09;;;;;;;6.75;2.45;;;;;;;;;;4872507;29;20055;-79
2023/11/16 16:02:54;;;;;;;7.20;2.40;;;;;;;;;;4871545;29;20514;-78
2023/11/16 16:05:41;;;;;;;7.97;2.60;;;;;;;;;;4874746;29;20064;-80
2023/11/16 16:08:27;;;;;;;3.75;1.88;;;;;;;;;;4875161;29;20040;-79
2023/11/16 16:11:13;;;;;;;6.57;2.33;;;;;;;;;;4882095;29;20040;-78
2023/11/16 16:13:59;;;;;;;6.45;3.05;;;;;;;;;;4882258;29;20036;-78
2023/11/16 16:16:44;;;;;;;4.57;2.72;;;;;;;;;;4871795;29;20140;-78
2023/11/16 16:19:31;;;;;;;10.75;2.58;;;;;;;;;;4872951;29;20492;-78
2023/11/16 16:22:16;;;;;;;4.63;2.70;;;;;;;;;;4873566;29;20072;-78
2023/11/16 16:25:01;;;;;;;6.78;2.88;;;;;;;;;;4870570;29;20070;-77
2023/11/16 16:27:47;;;;;;;4.95;2.67;;;;;;;;;;4878233;29;20032;-77
2023/11/16 16:30:34;;;;;;;5.35;2.40;;;;;;;;;;4881437;29;20031;-77
2023/11/16 16:33:19;;;;;;;3.95;2.50;;;;;;;;;;4867979;29;20049;-77
2023/11/16 16:36:04;;;;;;;5.00;3.08;;;;;;;;;;4867719;29;20033;-77
2023/11/16 16:38:50;;;;;;;7.32;2.90;;;;;;;;;;4871474;29;20020;-77
2023/11/16 16:41:35;;;;;;;5.82;2.70;;;;;;;;;;4870543;29;20032;-77